Grand Prairie, Illinois
Current Conditions -  °F | °C
As of 2:35 PM on Saturday 20 Dec 2014 (Local Time) from KENL Reporting Station
Overcast Overcast  
Wind Chill: 35°   Ceiling: 3000
Heat Index: 39°   Visibility: 10mi
Dew Point: 29°   Wind: 5mph
Humidity: 68%   Direction: 170°S
Pressure: 30.25"   Gusts: NA
Location:  38.3873°N, 89.0897°W
Report Text: KENL 202035Z AUTO 17004KT 10SM OVC030 04/M02 A3025 RMK AO2 T00381016
Loading
Personal Weather Stations






























Interactive Weather Map New forecast layout! Learn more

10-Day Weather Forecast

Advertisements
Track Severe Weather on mobile